Bitflower — SBJE — position and weather

sailwx.info

Track history (hours):
 
Tides and Currents Weather Stations Pressure Air Temp Water Temp Dewpoint Dewpoint Depression Visibility Wind Speed Wind Dir Waves Ship Positions

Bitflower

Last reported at 2017-Nov-16 10:10 UTC. Time now 2017-Nov-22 11:06 UTC.
Position N 59°53' E 022°19'.

Length 116 m; draft 4.9 m.

Type: Ship. MMSI: 266009000.

Date/timePositionNaut miles runAvg speedWind from/ knotsBaromVisibWave heightAir tempDewpointWater temp
2017-Nov-16 10:10N 59°53' E 022°19'22 9.8
2017-Nov-16 07:52N 59°46' E 023°01'410.0
2017-Nov-16 07:28N 59°43' E 023°06'5 9.8
2017-Nov-16 07:00N 59°42' E 023°15'510.2
2017-Nov-16 06:30N 59°42' E 023°25'510.1
2017-Nov-16 06:00N 59°42' E 023°35'510.0
2017-Nov-16 05:30N 59°43' E 023°45'510.4
2017-Nov-16 05:00N 59°45' E 023°55'510.2
2017-Nov-16 04:30N 59°46' E 024°04'710.1
2017-Nov-16 03:48N 59°48' E 024°18'310.1
2017-Nov-16 03:31N 59°49' E 024°24'5 9.7
2017-Nov-16 03:01N 59°50' E 024°33'5 9.9
2017-Nov-16 02:30N 59°52' E 024°43'5 9.8
2017-Nov-16 02:00N 59°53' E 024°52'510.1
2017-Nov-16 01:30N 59°54' E 025°01'510.1
2017-Nov-16 01:00N 59°55' E 025°11'510.4
2017-Nov-16 00:30N 59°57' E 025°21'610.6
2017-Nov-15 23:57N 59°60' E 025°31'5 0.4
2017-Nov-15 09:56N 60°05' E 025°34'511.4
2017-Nov-15 09:31N 60°01' E 025°32'711.2
2017-Nov-15 08:55N 59°57' E 025°20'4 9.6
2017-Nov-15 08:30N 59°56' E 025°13'5 9.9
2017-Nov-15 08:01N 59°55' E 025°03'5 9.9
2017-Nov-15 07:30N 59°53' E 024°54'5 9.9
2017-Nov-15 07:01N 59°52' E 024°44'510.9
2017-Nov-15 06:31N 59°50' E 024°34'611.2
2017-Nov-15 06:01N 59°49' E 024°23'811.3
2017-Nov-15 05:18N 59°47' E 024°08'411.5
2017-Nov-15 04:59N 59°46' E 024°01'611.6
2017-Nov-15 04:29N 59°44' E 023°50'511.6
2017-Nov-15 04:00N 59°43' E 023°39'611.4
2017-Nov-15 03:31N 59°42' E 023°28'611.5
2017-Nov-15 03:00N 59°42' E 023°17'611.4
2017-Nov-15 02:31N 59°43' E 023°06'510.9
2017-Nov-15 02:00N 59°47' E 022°58'5 7.9
2017-Nov-15 01:22N 59°51' E 022°53'  
2017-Nov-07 20:09N 60°07' E 021°41'413.1
2017-Nov-07 19:50N 60°03' E 021°41'413.3
2017-Nov-07 19:30N 59°59' E 021°42'713.3
2017-Nov-07 19:00N 59°54' E 021°33'713.5
2017-Nov-07 18:30N 59°50' E 021°22'510.7
2017-Nov-07 18:00N 59°44' E 021°20'612.4
2017-Nov-07 17:30N 59°38' E 021°18'612.8
2017-Nov-07 17:00N 59°32' E 021°13'712.8
2017-Nov-07 16:29N 59°27' E 021°07'24012.6
2017-Nov-06 21:30N 56°07' E 016°56'612.6
2017-Nov-06 21:00N 56°04' E 016°47'712.9
2017-Nov-06 20:30N 56°00' E 016°37'  
Track history (hours):
 
Tides and Currents Weather Stations Pressure Air Temp Water Temp Dewpoint Dewpoint Depression Visibility Wind Speed Wind Dir Waves Ship Positions

Bitflower

Last reported at 2017-Nov-16 10:10 UTC. Time now 2017-Nov-22 11:06 UTC.
Position N 59°53' E 022°19'.

Length 116 m; draft 4.9 m.

Type: Ship. MMSI: 266009000.

Date/timePositionNaut miles runAvg speedWind from/ knotsBaromVisibWave heightAir tempDewpointWater temp
2017-Nov-16 10:10N 59°53' E 022°19'22 9.8
2017-Nov-16 07:52N 59°46' E 023°01'410.0
2017-Nov-16 07:28N 59°43' E 023°06'5 9.8
2017-Nov-16 07:00N 59°42' E 023°15'510.2
2017-Nov-16 06:30N 59°42' E 023°25'510.1
2017-Nov-16 06:00N 59°42' E 023°35'510.0
2017-Nov-16 05:30N 59°43' E 023°45'510.4
2017-Nov-16 05:00N 59°45' E 023°55'510.2
2017-Nov-16 04:30N 59°46' E 024°04'710.1
2017-Nov-16 03:48N 59°48' E 024°18'310.1
2017-Nov-16 03:31N 59°49' E 024°24'5 9.7
2017-Nov-16 03:01N 59°50' E 024°33'5 9.9
2017-Nov-16 02:30N 59°52' E 024°43'5 9.8
2017-Nov-16 02:00N 59°53' E 024°52'510.1
2017-Nov-16 01:30N 59°54' E 025°01'510.1
2017-Nov-16 01:00N 59°55' E 025°11'510.4
2017-Nov-16 00:30N 59°57' E 025°21'610.6
2017-Nov-15 23:57N 59°60' E 025°31'5 0.4
2017-Nov-15 09:56N 60°05' E 025°34'511.4
2017-Nov-15 09:31N 60°01' E 025°32'711.2
2017-Nov-15 08:55N 59°57' E 025°20'4 9.6
2017-Nov-15 08:30N 59°56' E 025°13'5 9.9
2017-Nov-15 08:01N 59°55' E 025°03'5 9.9
2017-Nov-15 07:30N 59°53' E 024°54'5 9.9
2017-Nov-15 07:01N 59°52' E 024°44'510.9
2017-Nov-15 06:31N 59°50' E 024°34'611.2
2017-Nov-15 06:01N 59°49' E 024°23'811.3
2017-Nov-15 05:18N 59°47' E 024°08'411.5
2017-Nov-15 04:59N 59°46' E 024°01'611.6
2017-Nov-15 04:29N 59°44' E 023°50'511.6
2017-Nov-15 04:00N 59°43' E 023°39'611.4
2017-Nov-15 03:31N 59°42' E 023°28'611.5
2017-Nov-15 03:00N 59°42' E 023°17'611.4
2017-Nov-15 02:31N 59°43' E 023°06'510.9
2017-Nov-15 02:00N 59°47' E 022°58'5 7.9
2017-Nov-15 01:22N 59°51' E 022°53'  
2017-Nov-07 20:09N 60°07' E 021°41'413.1
2017-Nov-07 19:50N 60°03' E 021°41'413.3
2017-Nov-07 19:30N 59°59' E 021°42'713.3
2017-Nov-07 19:00N 59°54' E 021°33'713.5
2017-Nov-07 18:30N 59°50' E 021°22'510.7
2017-Nov-07 18:00N 59°44' E 021°20'612.4
2017-Nov-07 17:30N 59°38' E 021°18'612.8
2017-Nov-07 17:00N 59°32' E 021°13'712.8
2017-Nov-07 16:29N 59°27' E 021°07'24012.6
2017-Nov-06 21:30N 56°07' E 016°56'612.6
2017-Nov-06 21:00N 56°04' E 016°47'712.9
2017-Nov-06 20:30N 56°00' E 016°37'  

Dump ship's entire track history